createdAt,value
2017-10-11T00:00:40.155Z,99.90
2017-10-11T00:03:08.542Z,99.90
2017-10-11T00:05:36.261Z,99.90
2017-10-11T00:08:03.841Z,99.90
2017-10-11T00:10:31.406Z,99.90
2017-10-11T00:12:58.998Z,99.90
2017-10-11T00:15:26.604Z,99.90
2017-10-11T00:17:54.190Z,99.90
2017-10-11T00:20:21.799Z,99.90
2017-10-11T00:22:49.385Z,99.90
2017-10-11T00:25:17.767Z,99.90
2017-10-11T00:27:46.112Z,99.90
2017-10-11T00:30:13.728Z,99.90
2017-10-11T00:32:41.476Z,99.90
2017-10-11T00:35:09.824Z,99.90
2017-10-11T00:37:37.414Z,99.90
2017-10-11T00:40:06.486Z,99.90
2017-10-11T00:42:35.279Z,99.90
2017-10-11T00:45:02.944Z,99.90
2017-10-11T00:47:30.542Z,99.90
2017-10-11T00:49:58.162Z,99.90
2017-10-11T00:52:26.740Z,99.90
2017-10-11T00:54:54.368Z,99.90
2017-10-11T00:57:22.750Z,99.90
2017-10-11T00:59:51.328Z,99.90
2017-10-11T01:02:21.364Z,99.90
2017-10-11T01:04:49.909Z,99.90
2017-10-11T01:07:18.403Z,99.90
2017-10-11T01:09:46.547Z,99.90
2017-10-11T01:12:18.550Z,99.90
2017-10-11T01:14:47.070Z,99.90
2017-10-11T01:17:14.865Z,99.90
2017-10-11T01:19:42.505Z,99.90
2017-10-11T01:22:10.227Z,99.90
2017-10-11T01:24:37.812Z,99.90
2017-10-11T01:27:06.560Z,99.90
2017-10-11T01:29:34.327Z,99.90
2017-10-11T01:32:01.927Z,99.90
2017-10-11T01:34:29.520Z,99.90
2017-10-11T01:36:57.929Z,99.90
2017-10-11T01:39:26.309Z,99.90
2017-10-11T01:41:53.918Z,99.90
2017-10-11T01:44:21.529Z,99.90
2017-10-11T01:46:50.320Z,99.90
2017-10-11T01:49:17.988Z,99.90
2017-10-11T01:51:46.538Z,99.90
2017-10-11T01:54:14.769Z,99.90
2017-10-11T01:56:46.292Z,99.90
2017-10-11T01:59:13.908Z,99.90
2017-10-11T02:01:41.501Z,99.90
2017-10-11T02:04:09.095Z,99.90
2017-10-11T02:06:36.730Z,99.90
2017-10-11T02:09:04.302Z,99.90
2017-10-11T02:11:31.884Z,99.90
2017-10-11T02:14:01.312Z,99.90
2017-10-11T02:16:29.696Z,99.90
2017-10-11T02:18:58.016Z,99.90
2017-10-11T02:21:25.653Z,99.90
2017-10-11T02:23:53.972Z,99.90
2017-10-11T02:26:21.534Z,99.90
2017-10-11T02:28:49.114Z,99.90
2017-10-11T02:31:16.690Z,99.90
2017-10-11T02:33:44.357Z,99.90
2017-10-11T02:36:12.254Z,99.90
2017-10-11T02:38:40.622Z,99.90
2017-10-11T02:41:09.161Z,99.90
2017-10-11T02:43:36.712Z,99.90
2017-10-11T02:46:05.029Z,99.90
2017-10-11T02:48:32.583Z,99.90
2017-10-11T02:51:00.143Z,99.90
2017-10-11T02:53:27.706Z,99.90
2017-10-11T02:55:55.323Z,99.90
2017-10-11T02:58:23.687Z,99.90
2017-10-11T03:00:51.556Z,99.90
2017-10-11T03:03:19.138Z,99.90
2017-10-11T03:05:46.675Z,99.90
2017-10-11T03:08:14.216Z,99.90
2017-10-11T03:10:43.720Z,99.90
2017-10-11T03:13:11.333Z,99.90
2017-10-11T03:15:38.934Z,99.90
2017-10-11T03:18:07.273Z,99.90
2017-10-11T03:20:34.838Z,99.90
2017-10-11T03:23:02.417Z,99.90
2017-10-11T03:25:29.982Z,99.90
2017-10-11T03:27:57.562Z,99.90
2017-10-11T03:30:25.880Z,99.90
2017-10-11T03:32:53.478Z,99.90
2017-10-11T03:35:22.087Z,99.90
2017-10-11T03:37:49.664Z,99.90
2017-10-11T03:40:17.333Z,99.90
2017-10-11T03:42:44.919Z,99.90
2017-10-11T03:45:13.583Z,99.90
2017-10-11T03:47:41.208Z,99.90
2017-10-11T03:50:08.818Z,99.90
2017-10-11T03:52:36.418Z,99.90
2017-10-11T03:55:04.029Z,99.90
2017-10-11T03:57:32.582Z,99.90
2017-10-11T04:00:00.187Z,99.90
2017-10-11T04:02:28.569Z,99.90
2017-10-11T04:04:56.152Z,99.90
2017-10-11T04:07:24.526Z,99.90
2017-10-11T04:09:52.186Z,99.90
2017-10-11T04:12:20.630Z,99.90
2017-10-11T04:14:48.476Z,99.90
2017-10-11T04:17:16.054Z,99.90
2017-10-11T04:19:43.646Z,99.90
2017-10-11T04:22:11.269Z,99.90
2017-10-11T04:24:38.862Z,99.90
2017-10-11T04:27:06.481Z,99.90
2017-10-11T04:29:39.697Z,99.90
2017-10-11T04:32:07.321Z,99.90
2017-10-11T04:34:34.912Z,99.90
2017-10-11T04:37:03.288Z,99.90
2017-10-11T04:39:31.671Z,99.90
2017-10-11T04:42:00.009Z,99.90
2017-10-11T04:44:27.593Z,99.90
2017-10-11T04:46:55.206Z,99.90
2017-10-11T04:49:22.800Z,99.90
2017-10-11T04:51:50.357Z,99.90
2017-10-11T04:54:18.625Z,99.90
2017-10-11T04:56:46.189Z,99.90
2017-10-11T04:59:13.749Z,99.90
2017-10-11T05:01:41.340Z,99.90
2017-10-11T05:04:08.932Z,99.90
2017-10-11T05:06:36.511Z,99.90
2017-10-11T05:09:04.100Z,99.90
2017-10-11T05:11:32.224Z,99.90
2017-10-11T05:13:59.794Z,99.90
2017-10-11T05:16:27.469Z,99.90
2017-10-11T05:18:55.282Z,99.90
2017-10-11T05:21:23.631Z,99.90
2017-10-11T05:23:51.207Z,99.90
2017-10-11T05:26:19.639Z,99.90
2017-10-11T05:28:48.210Z,99.90
2017-10-11T05:31:15.758Z,99.90
2017-10-11T05:33:44.061Z,99.90
2017-10-11T05:36:12.642Z,99.90
2017-10-11T05:38:40.225Z,99.90
2017-10-11T05:41:07.807Z,99.90
2017-10-11T05:43:35.385Z,99.90
2017-10-11T05:46:03.821Z,99.90
2017-10-11T05:48:31.384Z,99.90
2017-10-11T05:50:59.716Z,99.90
2017-10-11T05:53:27.306Z,99.90
2017-10-11T05:55:55.624Z,99.90
2017-10-11T05:58:25.600Z,99.90
2017-10-11T06:00:53.171Z,99.90
2017-10-11T06:03:21.471Z,99.90
2017-10-11T06:05:49.071Z,99.90
2017-10-11T06:08:16.699Z,99.90
2017-10-11T06:10:44.285Z,99.90
2017-10-11T06:13:11.881Z,99.90
2017-10-11T06:15:39.451Z,99.90
2017-10-11T06:18:07.013Z,99.90
2017-10-11T06:20:34.605Z,99.90
2017-10-11T06:23:04.946Z,99.90
2017-10-11T06:25:36.511Z,99.90
2017-10-11T06:28:05.035Z,99.90
2017-10-11T06:30:32.660Z,99.90
2017-10-11T06:33:02.446Z,99.90
2017-10-11T06:35:32.921Z,99.90
2017-10-11T06:38:01.125Z,99.90
2017-10-11T06:40:28.713Z,99.90
2017-10-11T06:42:56.382Z,99.90
2017-10-11T06:45:24.774Z,99.90
2017-10-11T06:47:53.146Z,99.90
2017-10-11T06:50:20.719Z,99.90
2017-10-11T06:52:48.275Z,99.90
2017-10-11T06:55:16.318Z,99.90
2017-10-11T06:57:43.953Z,99.90
2017-10-11T07:00:13.210Z,99.90
2017-10-11T07:02:40.818Z,99.90
2017-10-11T07:05:09.169Z,99.90
2017-10-11T07:07:36.714Z,99.90
2017-10-11T07:10:04.300Z,99.90
2017-10-11T07:12:31.898Z,99.90
2017-10-11T07:15:00.270Z,99.90
2017-10-11T07:17:28.599Z,99.90
2017-10-11T07:19:56.170Z,99.90
2017-10-11T07:22:23.786Z,99.90
2017-10-11T07:24:52.175Z,99.90
2017-10-11T07:27:30.532Z,99.90
2017-10-11T07:30:02.890Z,99.90
2017-10-11T07:32:30.762Z,99.90
2017-10-11T07:34:58.678Z,99.90
2017-10-11T07:37:26.321Z,99.90
2017-10-11T07:39:55.161Z,99.90
2017-10-11T07:42:23.720Z,99.90
2017-10-11T07:44:51.328Z,99.90
2017-10-11T07:47:18.956Z,99.90
2017-10-11T07:49:46.564Z,99.90
2017-10-11T07:52:14.149Z,99.90
2017-10-11T07:54:41.748Z,99.90
2017-10-11T07:57:09.359Z,99.90
2017-10-11T07:59:37.702Z,99.90
2017-10-11T08:02:06.042Z,99.90
2017-10-11T08:04:33.702Z,99.90
2017-10-11T08:07:01.290Z,99.90
2017-10-11T08:09:28.900Z,99.90
2017-10-11T08:11:56.494Z,99.90
2017-10-11T08:14:24.073Z,99.90
2017-10-11T08:16:51.624Z,99.90
2017-10-11T08:19:19.209Z,99.90
2017-10-11T08:21:46.760Z,99.90
2017-10-11T08:24:14.344Z,99.90
2017-10-11T08:26:42.058Z,99.90
2017-10-11T08:29:11.413Z,99.90
2017-10-11T08:31:39.254Z,99.90
2017-10-11T08:34:07.692Z,99.90
2017-10-11T08:36:36.076Z,99.90
2017-10-11T08:39:03.777Z,99.90
2017-10-11T08:41:32.167Z,99.90
2017-10-11T08:44:00.592Z,99.90
2017-10-11T08:46:28.296Z,99.90
2017-10-11T08:48:55.856Z,99.90
2017-10-11T08:51:23.458Z,99.90
2017-10-11T08:53:51.029Z,99.90
2017-10-11T08:56:18.595Z,99.90
2017-10-11T08:58:46.181Z,99.90
2017-10-11T09:01:13.815Z,99.90
2017-10-11T09:03:42.137Z,96.00
2017-10-11T09:06:09.725Z,95.90
2017-10-11T09:08:37.360Z,94.70
2017-10-11T09:11:04.970Z,92.70
2017-10-11T09:13:32.621Z,94.10
2017-10-11T09:16:01.092Z,93.20
2017-10-11T09:18:28.679Z,94.40
2017-10-11T09:20:57.053Z,91.60
2017-10-11T09:23:24.587Z,91.60
2017-10-11T09:25:52.179Z,90.50
2017-10-11T09:28:20.762Z,91.30
2017-10-11T09:30:49.144Z,90.40
2017-10-11T09:33:16.725Z,87.70
2017-10-11T09:35:44.341Z,87.70
2017-10-11T09:38:11.896Z,85.50
2017-10-11T09:40:40.233Z,83.30
2017-10-11T09:43:07.791Z,82.80
2017-10-11T09:45:35.377Z,85.00
2017-10-11T09:48:02.938Z,85.80
2017-10-11T09:50:30.675Z,83.30
2017-10-11T09:52:58.242Z,84.10
2017-10-11T09:55:25.795Z,86.20
2017-10-11T09:57:53.384Z,86.10
2017-10-11T10:00:20.906Z,88.50
2017-10-11T10:02:48.484Z,90.70
2017-10-11T10:05:16.075Z,92.70
2017-10-11T10:07:43.631Z,93.40
2017-10-11T10:10:11.210Z,95.10
2017-10-11T10:12:38.808Z,96.00
2017-10-11T10:15:07.187Z,96.80
2017-10-11T10:17:35.524Z,98.60
2017-10-11T10:20:03.103Z,98.60
2017-10-11T10:22:30.678Z,99.20
2017-10-11T10:24:58.237Z,98.00
2017-10-11T10:27:27.648Z,99.90
2017-10-11T10:29:55.323Z,99.90
2017-10-11T10:32:25.534Z,99.90
2017-10-11T10:34:58.536Z,99.90
2017-10-11T10:37:26.944Z,99.90
2017-10-11T10:39:56.493Z,99.90
2017-10-11T10:42:24.080Z,99.90
2017-10-11T10:44:57.638Z,99.90
2017-10-11T10:47:26.175Z,99.90
2017-10-11T10:49:53.804Z,99.90
2017-10-11T10:52:21.400Z,99.90
2017-10-11T10:54:48.958Z,99.90
2017-10-11T10:57:16.508Z,99.90
2017-10-11T10:59:44.085Z,99.90
2017-10-11T11:02:11.720Z,99.90
2017-10-11T11:04:39.312Z,99.90
2017-10-11T11:07:06.868Z,99.90
2017-10-11T11:09:34.664Z,99.90
2017-10-11T11:12:02.246Z,99.90
2017-10-11T11:14:30.628Z,97.80
2017-10-11T11:16:58.179Z,97.80
2017-10-11T11:19:25.732Z,96.60
2017-10-11T11:21:53.616Z,95.80
2017-10-11T11:24:21.201Z,93.00
2017-10-11T11:26:49.131Z,91.60
2017-10-11T11:29:16.739Z,88.30
2017-10-11T11:31:44.487Z,87.80
2017-10-11T11:34:12.303Z,86.90
2017-10-11T11:36:40.072Z,86.20
2017-10-11T11:39:07.915Z,83.90
2017-10-11T11:41:35.761Z,81.60
2017-10-11T11:44:04.392Z,80.40
2017-10-11T11:46:32.806Z,79.50
2017-10-11T11:49:00.393Z,79.50
2017-10-11T11:51:27.963Z,76.50
2017-10-11T11:53:55.588Z,78.30
2017-10-11T11:56:23.129Z,76.40
2017-10-11T11:58:50.710Z,75.60
2017-10-11T12:01:19.043Z,73.00
2017-10-11T12:03:46.650Z,73.70
2017-10-11T12:06:14.987Z,67.90
2017-10-11T12:08:42.594Z,67.90
2017-10-11T12:11:10.938Z,66.00
2017-10-11T12:13:38.547Z,65.90
2017-10-11T12:16:06.871Z,63.90
2017-10-11T12:18:34.418Z,63.90
2017-10-11T12:21:02.028Z,63.20
2017-10-11T12:23:29.896Z,61.60
2017-10-11T12:25:57.481Z,62.60
2017-10-11T12:28:25.046Z,60.80
2017-10-11T12:30:53.353Z,64.90
2017-10-11T12:33:20.906Z,63.90
2017-10-11T12:35:48.461Z,64.30
2017-10-11T12:38:17.023Z,66.80
2017-10-11T12:40:46.219Z,66.80
2017-10-11T12:43:14.576Z,64.10
2017-10-11T12:45:42.119Z,64.00
2017-10-11T12:48:10.688Z,63.30
2017-10-11T12:50:39.422Z,60.00
2017-10-11T12:53:08.703Z,59.90
2017-10-11T12:55:36.262Z,59.70
2017-10-11T12:58:04.579Z,59.40
2017-10-11T13:00:32.142Z,59.40
2017-10-11T13:02:59.698Z,59.50
2017-10-11T13:05:27.226Z,58.20
2017-10-11T13:07:55.539Z,56.50
2017-10-11T13:10:23.114Z,56.40
2017-10-11T13:12:50.656Z,58.80
2017-10-11T13:15:18.518Z,56.50
2017-10-11T13:17:46.846Z,56.50
2017-10-11T13:20:14.773Z,56.40
2017-10-11T13:22:42.875Z,57.90
2017-10-11T13:25:10.469Z,58.00
2017-10-11T13:27:38.191Z,57.10
2017-10-11T13:30:05.802Z,57.60
2017-10-11T13:32:34.317Z,58.70
2017-10-11T13:35:02.972Z,60.80
2017-10-11T13:37:30.894Z,60.70
2017-10-11T13:39:59.651Z,61.10
2017-10-11T13:42:27.229Z,61.00
2017-10-11T13:44:54.799Z,60.60
2017-10-11T13:47:22.339Z,61.40
2017-10-11T13:49:49.918Z,62.10
2017-10-11T13:52:19.270Z,61.50
2017-10-11T13:54:46.849Z,60.60
2017-10-11T13:57:14.414Z,61.10
2017-10-11T13:59:42.085Z,61.90
2017-10-11T14:02:09.719Z,62.10
2017-10-11T14:04:38.037Z,62.00
2017-10-11T14:07:05.760Z,61.90
2017-10-11T14:09:33.346Z,63.00
2017-10-11T14:12:01.124Z,62.60
2017-10-11T14:14:29.018Z,64.70
2017-10-11T14:16:56.608Z,64.40
2017-10-11T14:19:24.204Z,66.20
2017-10-11T14:21:52.664Z,69.40
2017-10-11T14:24:20.983Z,71.60
2017-10-11T14:26:48.556Z,71.50
2017-10-11T14:29:16.096Z,73.00
2017-10-11T14:31:44.425Z,78.70
2017-10-11T14:34:12.015Z,78.50
2017-10-11T14:36:39.567Z,80.10
2017-10-11T14:39:07.147Z,81.80
2017-10-11T14:41:35.533Z,84.40
2017-10-11T14:44:03.103Z,84.20
2017-10-11T14:46:30.728Z,85.60
2017-10-11T14:48:58.274Z,87.60
2017-10-11T14:51:25.897Z,88.70
2017-10-11T14:53:54.022Z,89.60
2017-10-11T14:56:21.574Z,90.90
2017-10-11T14:58:49.137Z,91.60
2017-10-11T15:01:16.685Z,92.20
2017-10-11T15:03:44.243Z,93.40
2017-10-11T15:06:12.586Z,95.00
2017-10-11T15:08:40.133Z,95.00
2017-10-11T15:11:07.720Z,95.80
2017-10-11T15:13:35.285Z,95.20
2017-10-11T15:16:04.221Z,95.10
2017-10-11T15:18:31.837Z,95.20
2017-10-11T15:20:59.371Z,95.70
2017-10-11T15:23:26.931Z,97.10
2017-10-11T15:25:54.509Z,98.10
2017-10-11T15:28:22.102Z,98.50
2017-10-11T15:30:49.731Z,98.70
2017-10-11T15:33:18.346Z,99.50
2017-10-11T15:35:45.911Z,99.90
2017-10-11T15:38:16.691Z,99.90
2017-10-11T15:40:45.123Z,99.90
2017-10-11T15:43:12.693Z,99.90
2017-10-11T15:45:40.360Z,99.90
2017-10-11T15:48:08.972Z,99.90
2017-10-11T15:50:36.573Z,99.90
2017-10-11T15:53:04.988Z,99.90
2017-10-11T15:55:32.555Z,99.90
2017-10-11T15:58:00.343Z,99.90
2017-10-11T16:00:27.943Z,99.90
2017-10-11T16:02:56.301Z,99.90
2017-10-11T16:05:24.671Z,99.90
2017-10-11T16:07:52.232Z,99.90
2017-10-11T16:10:19.813Z,99.90
2017-10-11T16:12:47.399Z,99.90
2017-10-11T16:15:15.741Z,99.90
2017-10-11T16:17:43.299Z,99.90
2017-10-11T16:20:10.876Z,99.90
2017-10-11T16:22:38.452Z,99.90
2017-10-11T16:25:07.071Z,99.90
2017-10-11T16:27:35.422Z,99.90
2017-10-11T16:30:03.034Z,99.90
2017-10-11T16:32:30.664Z,99.90
2017-10-11T16:34:58.224Z,99.90
2017-10-11T16:37:26.836Z,99.90
2017-10-11T16:39:55.225Z,99.90
2017-10-11T16:42:23.592Z,99.90
2017-10-11T16:44:51.124Z,99.90
2017-10-11T16:47:18.786Z,99.90
2017-10-11T16:49:47.011Z,99.90
2017-10-11T16:52:14.575Z,99.90
2017-10-11T16:54:42.933Z,99.90
2017-10-11T16:57:10.480Z,99.90
2017-10-11T16:59:38.045Z,99.90
2017-10-11T17:02:07.732Z,99.90
2017-10-11T17:04:38.163Z,99.90
2017-10-11T17:07:08.101Z,99.90
2017-10-11T17:09:35.739Z,99.90
2017-10-11T17:12:03.301Z,99.90
2017-10-11T17:14:31.623Z,99.90
2017-10-11T17:16:59.201Z,99.90
2017-10-11T17:19:26.743Z,99.90
2017-10-11T17:21:54.349Z,99.90
2017-10-11T17:24:21.943Z,99.90
2017-10-11T17:26:50.313Z,99.90
2017-10-11T17:29:18.691Z,99.90
2017-10-11T17:31:47.083Z,99.90
2017-10-11T17:34:15.496Z,99.90
2017-10-11T17:36:43.166Z,99.90
2017-10-11T17:39:10.891Z,99.90
2017-10-11T17:41:39.229Z,99.90
2017-10-11T17:44:06.810Z,99.90
2017-10-11T17:46:34.396Z,99.90
2017-10-11T17:49:02.767Z,99.90
2017-10-11T17:51:30.338Z,99.90
2017-10-11T17:53:58.344Z,99.90
2017-10-11T17:56:27.724Z,99.90
2017-10-11T17:58:56.096Z,99.90
2017-10-11T18:01:25.640Z,99.90
2017-10-11T18:03:54.090Z,99.90
2017-10-11T18:06:21.697Z,99.90
2017-10-11T18:08:49.296Z,99.90
2017-10-11T18:11:17.547Z,99.90
2017-10-11T18:13:45.240Z,99.90
2017-10-11T18:16:12.886Z,99.90
2017-10-11T18:18:40.528Z,99.90
2017-10-11T18:21:09.005Z,99.90
2017-10-11T18:23:36.714Z,99.90
2017-10-11T18:26:04.268Z,99.90
2017-10-11T18:28:32.002Z,99.90
2017-10-11T18:30:59.760Z,99.90
2017-10-11T18:33:27.546Z,99.90
2017-10-11T18:35:55.261Z,99.90
2017-10-11T18:38:22.913Z,99.90
2017-10-11T18:40:50.571Z,99.90
2017-10-11T18:43:18.213Z,99.90
2017-10-11T18:45:45.911Z,99.90
2017-10-11T18:48:13.551Z,99.90
2017-10-11T18:50:41.183Z,99.90
2017-10-11T18:53:10.311Z,99.90
2017-10-11T18:55:38.182Z,99.90
2017-10-11T18:58:05.819Z,99.90
2017-10-11T19:00:33.445Z,99.90
2017-10-11T19:03:01.527Z,99.90
2017-10-11T19:05:29.190Z,99.90
2017-10-11T19:07:56.996Z,99.90
2017-10-11T19:10:24.554Z,99.90
2017-10-11T19:12:52.143Z,99.90
2017-10-11T19:15:19.958Z,99.90
2017-10-11T19:17:47.687Z,99.90
2017-10-11T19:20:17.185Z,99.90
2017-10-11T19:22:45.829Z,99.90
2017-10-11T19:25:13.438Z,99.90
2017-10-11T19:27:41.322Z,99.90
2017-10-11T19:30:09.471Z,99.90
2017-10-11T19:32:37.129Z,99.90
2017-10-11T19:35:04.845Z,99.90
2017-10-11T19:37:33.327Z,99.90
2017-10-11T19:40:02.088Z,99.90
2017-10-11T19:42:31.230Z,99.90
2017-10-11T19:44:59.870Z,99.90
2017-10-11T19:47:29.165Z,99.90
2017-10-11T19:49:57.609Z,99.90
2017-10-11T19:52:25.285Z,99.90
2017-10-11T19:54:53.687Z,99.90
2017-10-11T19:57:21.376Z,99.90
2017-10-11T19:59:49.593Z,99.90
2017-10-11T20:02:20.890Z,99.90
2017-10-11T20:04:51.123Z,99.90
2017-10-11T20:07:19.836Z,99.90
2017-10-11T20:09:47.479Z,99.90
2017-10-11T20:12:17.081Z,99.90
2017-10-11T20:14:45.455Z,99.90
2017-10-11T20:17:13.092Z,99.90
2017-10-11T20:19:41.416Z,99.90
2017-10-11T20:22:09.130Z,99.90
2017-10-11T20:24:37.874Z,99.90
2017-10-11T20:27:16.309Z,99.90
2017-10-11T20:29:44.948Z,99.90
2017-10-11T20:32:12.614Z,99.90
2017-10-11T20:34:40.291Z,99.90
2017-10-11T20:37:07.958Z,99.90
2017-10-11T20:39:35.662Z,99.90
2017-10-11T20:42:03.303Z,99.90
2017-10-11T20:44:30.905Z,99.90
2017-10-11T20:46:58.763Z,99.90
2017-10-11T20:49:26.436Z,99.90
2017-10-11T20:51:57.003Z,99.90
2017-10-11T20:54:25.731Z,99.90
2017-10-11T20:56:53.283Z,99.90
2017-10-11T20:59:20.908Z,99.90
2017-10-11T21:01:50.616Z,99.90
2017-10-11T21:04:18.327Z,99.90
2017-10-11T21:06:47.062Z,99.90
2017-10-11T21:09:15.010Z,99.90
2017-10-11T21:11:44.420Z,99.90
2017-10-11T21:14:12.053Z,99.90
2017-10-11T21:16:40.396Z,99.90
2017-10-11T21:19:08.015Z,99.90
2017-10-11T21:21:35.693Z,99.90
2017-10-11T21:24:04.076Z,99.90
2017-10-11T21:26:31.671Z,99.90
2017-10-11T21:29:02.024Z,99.90
2017-10-11T21:31:33.168Z,99.90
2017-10-11T21:34:00.777Z,99.90
2017-10-11T21:36:30.345Z,99.90
2017-10-11T21:38:57.981Z,99.90
2017-10-11T21:41:25.566Z,99.90
2017-10-11T21:43:53.129Z,99.90
2017-10-11T21:46:20.709Z,99.90
2017-10-11T21:48:48.301Z,99.90
2017-10-11T21:51:15.942Z,99.90
2017-10-11T21:53:43.503Z,99.90
2017-10-11T21:56:11.908Z,99.90
2017-10-11T21:58:40.221Z,99.90
2017-10-11T22:01:07.788Z,99.90
2017-10-11T22:03:35.344Z,99.90
2017-10-11T22:06:02.920Z,99.90
2017-10-11T22:08:30.501Z,99.90
2017-10-11T22:10:58.172Z,99.90
2017-10-11T22:13:25.767Z,99.90
2017-10-11T22:15:53.387Z,99.90
2017-10-11T22:18:20.981Z,99.90
2017-10-11T22:20:48.662Z,99.90
2017-10-11T22:23:18.776Z,99.90
2017-10-11T22:25:46.580Z,99.90
2017-10-11T22:28:15.233Z,99.90
2017-10-11T22:30:42.798Z,99.90
2017-10-11T22:33:10.397Z,99.90
2017-10-11T22:35:37.975Z,99.90
2017-10-11T22:38:06.301Z,99.90
2017-10-11T22:40:33.851Z,99.90
2017-10-11T22:43:01.454Z,99.90
2017-10-11T22:45:29.087Z,99.90
2017-10-11T22:47:56.962Z,99.90
2017-10-11T22:50:24.768Z,99.90
2017-10-11T22:52:53.156Z,99.90
2017-10-11T22:55:20.729Z,99.90
2017-10-11T22:57:49.064Z,99.90
2017-10-11T23:00:16.631Z,99.90
2017-10-11T23:02:44.201Z,99.90
2017-10-11T23:05:11.772Z,99.90
2017-10-11T23:07:40.449Z,99.90
2017-10-11T23:10:08.018Z,99.90
2017-10-11T23:12:35.545Z,99.90
2017-10-11T23:15:03.901Z,99.90
2017-10-11T23:17:31.442Z,99.90
2017-10-11T23:19:59.014Z,99.90
2017-10-11T23:22:26.766Z,99.90
2017-10-11T23:24:54.311Z,99.90
2017-10-11T23:27:21.848Z,99.90
2017-10-11T23:29:50.176Z,99.90
2017-10-11T23:32:17.712Z,99.90
2017-10-11T23:34:45.279Z,99.90
2017-10-11T23:37:12.853Z,99.90
2017-10-11T23:39:41.180Z,99.90
2017-10-11T23:42:08.748Z,99.90
2017-10-11T23:44:36.309Z,99.90
2017-10-11T23:47:03.874Z,99.90
2017-10-11T23:49:31.530Z,99.90
2017-10-11T23:51:59.090Z,99.90
2017-10-11T23:54:26.651Z,99.90
2017-10-11T23:56:55.293Z,99.90
2017-10-11T23:59:22.950Z,99.90
